sensor_id;sensor_type;location;lat;lon;timestamp;temperature;humidity
8172;DHT22;4127;47.908;10.850;2023-07-24T06:14:42;19.50;99.90
8172;DHT22;4127;47.908;10.850;2023-07-24T06:17:09;19.60;99.90
8172;DHT22;4127;47.908;10.850;2023-07-24T06:19:36;19.70;99.90
8172;DHT22;4127;47.908;10.850;2023-07-24T06:22:03;19.80;99.90
8172;DHT22;4127;47.908;10.850;2023-07-24T06:24:30;20.00;99.90
8172;DHT22;4127;47.908;10.850;2023-07-24T06:26:58;20.00;99.90
8172;DHT22;4127;47.908;10.850;2023-07-24T06:29:26;20.10;99.90
8172;DHT22;4127;47.908;10.850;2023-07-24T06:31:53;20.20;99.90
8172;DHT22;4127;47.908;10.850;2023-07-24T06:34:20;20.40;99.90
8172;DHT22;4127;47.908;10.850;2023-07-24T06:36:47;20.50;99.90
8172;DHT22;4127;47.908;10.850;2023-07-24T06:39:15;20.50;99.90
8172;DHT22;4127;47.908;10.850;2023-07-24T06:41:42;20.50;99.90
8172;DHT22;4127;47.908;10.850;2023-07-24T06:44:09;20.40;99.90
8172;DHT22;4127;47.908;10.850;2023-07-24T06:46:36;20.30;99.90
8172;DHT22;4127;47.908;10.850;2023-07-24T06:49:03;20.20;99.90
8172;DHT22;4127;47.908;10.850;2023-07-24T06:51:30;20.10;99.90
8172;DHT22;4127;47.908;10.850;2023-07-24T06:53:57;20.20;99.90
8172;DHT22;4127;47.908;10.850;2023-07-24T06:56:24;20.00;99.90
8172;DHT22;4127;47.908;10.850;2023-07-24T06:58:50;19.70;99.90
8172;DHT22;4127;47.908;10.850;2023-07-24T07:01:17;19.40;99.90
8172;DHT22;4127;47.908;10.850;2023-07-24T07:03:44;19.30;99.90
8172;DHT22;4127;47.908;10.850;2023-07-24T07:06:11;19.20;99.90
8172;DHT22;4127;47.908;10.850;2023-07-24T07:08:42;19.00;99.90
8172;DHT22;4127;47.908;10.850;2023-07-24T07:11:08;18.90;99.90
8172;DHT22;4127;47.908;10.850;2023-07-24T07:13:35;18.80;99.90
8172;DHT22;4127;47.908;10.850;2023-07-24T07:16:02;18.70;99.90
8172;DHT22;4127;47.908;10.850;2023-07-24T07:18:30;18.60;99.90
8172;DHT22;4127;47.908;10.850;2023-07-24T07:20:57;18.60;99.90
8172;DHT22;4127;47.908;10.850;2023-07-24T07:23:24;18.70;99.90
8172;DHT22;4127;47.908;10.850;2023-07-24T07:25:51;18.80;99.90
8172;DHT22;4127;47.908;10.850;2023-07-24T07:28:18;18.90;99.90
8172;DHT22;4127;47.908;10.850;2023-07-24T07:30:45;18.90;99.90
8172;DHT22;4127;47.908;10.850;2023-07-24T07:33:12;18.90;99.90
8172;DHT22;4127;47.908;10.850;2023-07-24T07:35:39;18.90;99.90
8172;DHT22;4127;47.908;10.850;2023-07-24T07:38:06;18.90;99.90
8172;DHT22;4127;47.908;10.850;2023-07-24T07:40:33;19.00;99.90
8172;DHT22;4127;47.908;10.850;2023-07-24T07:43:00;18.90;99.90
8172;DHT22;4127;47.908;10.850;2023-07-24T07:45:26;18.90;99.90
8172;DHT22;4127;47.908;10.850;2023-07-24T07:47:53;18.90;99.90
8172;DHT22;4127;47.908;10.850;2023-07-24T07:50:20;19.00;99.90
8172;DHT22;4127;47.908;10.850;2023-07-24T07:52:51;19.00;99.90
8172;DHT22;4127;47.908;10.850;2023-07-24T07:55:18;19.00;99.90
8172;DHT22;4127;47.908;10.850;2023-07-24T07:57:45;19.20;99.90
8172;DHT22;4127;47.908;10.850;2023-07-24T08:00:12;19.20;99.90
8172;DHT22;4127;47.908;10.850;2023-07-24T08:02:39;19.20;99.90
8172;DHT22;4127;47.908;10.850;2023-07-24T08:05:10;19.10;99.90
8172;DHT22;4127;47.908;10.850;2023-07-24T08:07:45;19.10;99.90
8172;DHT22;4127;47.908;10.850;2023-07-24T08:10:12;19.10;99.90
8172;DHT22;4127;47.908;10.850;2023-07-24T08:12:43;19.20;99.90
8172;DHT22;4127;47.908;10.850;2023-07-24T08:15:10;19.10;99.90
8172;DHT22;4127;47.908;10.850;2023-07-24T08:17:38;19.10;99.90
8172;DHT22;4127;47.908;10.850;2023-07-24T08:20:05;19.10;99.90
8172;DHT22;4127;47.908;10.850;2023-07-24T08:22:32;19.20;99.90
8172;DHT22;4127;47.908;10.850;2023-07-24T08:24:59;19.20;99.90
8172;DHT22;4127;47.908;10.850;2023-07-24T08:27:26;19.20;99.90
8172;DHT22;4127;47.908;10.850;2023-07-24T08:29:53;19.30;99.90
8172;DHT22;4127;47.908;10.850;2023-07-24T08:32:20;19.40;99.90
8172;DHT22;4127;47.908;10.850;2023-07-24T08:34:47;19.50;99.90
8172;DHT22;4127;47.908;10.850;2023-07-24T08:37:14;19.60;99.90
8172;DHT22;4127;47.908;10.850;2023-07-24T08:39:41;19.80;99.90
8172;DHT22;4127;47.908;10.850;2023-07-24T08:42:10;20.00;99.90
8172;DHT22;4127;47.908;10.850;2023-07-24T08:44:38;20.10;99.90
8172;DHT22;4127;47.908;10.850;2023-07-24T08:47:09;20.30;99.90
8172;DHT22;4127;47.908;10.850;2023-07-24T08:49:38;20.50;99.90
8172;DHT22;4127;47.908;10.850;2023-07-24T08:52:07;20.70;99.90
8172;DHT22;4127;47.908;10.850;2023-07-24T08:54:38;20.80;99.90
8172;DHT22;4127;47.908;10.850;2023-07-24T08:57:08;21.00;99.90
8172;DHT22;4127;47.908;10.850;2023-07-24T08:59:35;21.30;99.90
8172;DHT22;4127;47.908;10.850;2023-07-24T09:02:02;21.60;99.90
8172;DHT22;4127;47.908;10.850;2023-07-24T09:04:29;21.90;99.90
8172;DHT22;4127;47.908;10.850;2023-07-24T09:06:57;22.00;99.90
8172;DHT22;4127;47.908;10.850;2023-07-24T09:09:29;22.20;99.90
8172;DHT22;4127;47.908;10.850;2023-07-24T09:11:57;22.30;99.90
8172;DHT22;4127;47.908;10.850;2023-07-24T09:14:27;22.30;99.90
8172;DHT22;4127;47.908;10.850;2023-07-24T09:17:08;22.30;99.90
8172;DHT22;4127;47.908;10.850;2023-07-24T09:19:36;22.20;99.90
8172;DHT22;4127;47.908;10.850;2023-07-24T09:22:10;22.30;99.90
8172;DHT22;4127;47.908;10.850;2023-07-24T09:24:48;22.40;99.90
8172;DHT22;4127;47.908;10.850;2023-07-24T09:27:15;22.60;99.90
8172;DHT22;4127;47.908;10.850;2023-07-24T09:29:42;22.70;99.90
8172;DHT22;4127;47.908;10.850;2023-07-24T09:32:19;22.80;99.90
8172;DHT22;4127;47.908;10.850;2023-07-24T09:34:46;22.80;99.90
8172;DHT22;4127;47.908;10.850;2023-07-24T09:37:33;22.70;99.90
8172;DHT22;4127;47.908;10.850;2023-07-24T09:40:04;22.70;99.90
8172;DHT22;4127;47.908;10.850;2023-07-24T09:42:32;22.70;99.90
8172;DHT22;4127;47.908;10.850;2023-07-24T09:45:01;22.90;99.90
8172;DHT22;4127;47.908;10.850;2023-07-24T09:47:28;23.10;99.90
8172;DHT22;4127;47.908;10.850;2023-07-24T09:50:15;23.20;99.90
8172;DHT22;4127;47.908;10.850;2023-07-24T09:52:43;23.30;99.90
8172;DHT22;4127;47.908;10.850;2023-07-24T09:55:47;23.60;99.90
8172;DHT22;4127;47.908;10.850;2023-07-24T09:58:06;23.60;99.90
8172;DHT22;4127;47.908;10.850;2023-07-24T10:00:33;23.70;99.90
8172;DHT22;4127;47.908;10.850;2023-07-24T10:03:01;24.00;99.90
8172;DHT22;4127;47.908;10.850;2023-07-24T10:05:29;24.20;99.90
8172;DHT22;4127;47.908;10.850;2023-07-24T10:07:56;24.40;98.90
8172;DHT22;4127;47.908;10.850;2023-07-24T10:10:25;24.70;98.80
8172;DHT22;4127;47.908;10.850;2023-07-24T10:12:53;25.00;98.70
8172;DHT22;4127;47.908;10.850;2023-07-24T10:15:20;25.30;97.80
8172;DHT22;4127;47.908;10.850;2023-07-24T10:17:48;25.30;97.70
8172;DHT22;4127;47.908;10.850;2023-07-24T10:20:16;25.50;99.20
8172;DHT22;4127;47.908;10.850;2023-07-24T10:22:44;25.20;97.70
8172;DHT22;4127;47.908;10.850;2023-07-24T10:25:11;25.30;98.00
8172;DHT22;4127;47.908;10.850;2023-07-24T10:27:45;25.30;97.40
8172;DHT22;4127;47.908;10.850;2023-07-24T10:30:15;25.50;96.90
8172;DHT22;4127;47.908;10.850;2023-07-24T10:33:08;25.70;97.00
8172;DHT22;4127;47.908;10.850;2023-07-24T10:35:39;26.00;96.60
8172;DHT22;4127;47.908;10.850;2023-07-24T10:38:07;26.30;95.60
8172;DHT22;4127;47.908;10.850;2023-07-24T10:40:34;26.60;95.50
8172;DHT22;4127;47.908;10.850;2023-07-24T10:43:05;26.40;94.10
8172;DHT22;4127;47.908;10.850;2023-07-24T10:45:50;26.30;95.10
8172;DHT22;4127;47.908;10.850;2023-07-24T10:48:19;26.80;93.50
8172;DHT22;4127;47.908;10.850;2023-07-24T10:50:50;27.10;93.90
8172;DHT22;4127;47.908;10.850;2023-07-24T10:53:21;27.10;93.00
8172;DHT22;4127;47.908;10.850;2023-07-24T10:55:49;27.30;94.00
8172;DHT22;4127;47.908;10.850;2023-07-24T10:58:19;27.10;92.60
8172;DHT22;4127;47.908;10.850;2023-07-24T11:00:46;27.10;92.20
8172;DHT22;4127;47.908;10.850;2023-07-24T11:03:14;27.30;91.40
8172;DHT22;4127;47.908;10.850;2023-07-24T11:05:42;27.80;91.30
8172;DHT22;4127;47.908;10.850;2023-07-24T11:08:18;28.00;90.90
8172;DHT22;4127;47.908;10.850;2023-07-24T11:10:45;27.40;88.80
8172;DHT22;4127;47.908;10.850;2023-07-24T11:13:15;27.10;91.80
8172;DHT22;4127;47.908;10.850;2023-07-24T11:15:42;26.90;91.40
8172;DHT22;4127;47.908;10.850;2023-07-24T11:18:09;26.70;92.10
8172;DHT22;4127;47.908;10.850;2023-07-24T11:20:49;27.20;90.80
8172;DHT22;4127;47.908;10.850;2023-07-24T11:23:17;27.00;90.90
8172;DHT22;4127;47.908;10.850;2023-07-24T11:25:44;27.00;91.50
8172;DHT22;4127;47.908;10.850;2023-07-24T11:28:13;26.50;92.00
8172;DHT22;4127;47.908;10.850;2023-07-24T11:30:41;26.00;92.20
8172;DHT22;4127;47.908;10.850;2023-07-24T11:33:10;26.20;92.60
8172;DHT22;4127;47.908;10.850;2023-07-24T11:35:37;26.00;91.60
8172;DHT22;4127;47.908;10.850;2023-07-24T11:38:10;25.70;93.00
8172;DHT22;4127;47.908;10.850;2023-07-24T11:40:42;25.40;92.30
8172;DHT22;4127;47.908;10.850;2023-07-24T11:43:36;25.60;93.00
8172;DHT22;4127;47.908;10.850;2023-07-24T11:46:11;26.00;91.90
8172;DHT22;4127;47.908;10.850;2023-07-24T11:48:41;26.50;92.10
8172;DHT22;4127;47.908;10.850;2023-07-24T11:51:12;27.00;93.00
8172;DHT22;4127;47.908;10.850;2023-07-24T11:53:39;27.10;90.90
8172;DHT22;4127;47.908;10.850;2023-07-24T11:56:14;26.60;90.40
8172;DHT22;4127;47.908;10.850;2023-07-24T11:58:41;25.70;91.50
8172;DHT22;4127;47.908;10.850;2023-07-24T12:01:08;25.00;93.60
8172;DHT22;4127;47.908;10.850;2023-07-24T12:03:40;24.30;96.20
8172;DHT22;4127;47.908;10.850;2023-07-24T12:06:15;23.90;98.00
8172;DHT22;4127;47.908;10.850;2023-07-24T12:08:42;23.10;99.90
8172;DHT22;4127;47.908;10.850;2023-07-24T12:11:16;22.60;99.90
8172;DHT22;4127;47.908;10.850;2023-07-24T12:13:45;22.50;99.90
8172;DHT22;4127;47.908;10.850;2023-07-24T12:16:11;22.60;99.90
8172;DHT22;4127;47.908;10.850;2023-07-24T12:18:39;22.20;99.90
8172;DHT22;4127;47.908;10.850;2023-07-24T12:21:06;21.90;99.90
8172;DHT22;4127;47.908;10.850;2023-07-24T12:23:33;21.40;99.90
8172;DHT22;4127;47.908;10.850;2023-07-24T12:26:00;21.30;99.90
8172;DHT22;4127;47.908;10.850;2023-07-24T12:28:27;21.20;99.90
8172;DHT22;4127;47.908;10.850;2023-07-24T12:30:54;21.10;99.90
8172;DHT22;4127;47.908;10.850;2023-07-24T12:33:21;21.10;99.90
8172;DHT22;4127;47.908;10.850;2023-07-24T12:35:51;20.90;99.90
8172;DHT22;4127;47.908;10.850;2023-07-24T12:38:19;20.20;99.90
8172;DHT22;4127;47.908;10.850;2023-07-24T12:41:15;19.50;99.90
8172;DHT22;4127;47.908;10.850;2023-07-24T12:43:46;19.10;99.90
8172;DHT22;4127;47.908;10.850;2023-07-24T13:13:19;19.20;99.90
8172;DHT22;4127;47.908;10.850;2023-07-24T13:15:46;19.50;99.90
8172;DHT22;4127;47.908;10.850;2023-07-24T13:18:16;19.70;99.90
8172;DHT22;4127;47.908;10.850;2023-07-24T13:20:54;19.90;99.90
8172;DHT22;4127;47.908;10.850;2023-07-24T13:23:21;19.90;99.90
8172;DHT22;4127;47.908;10.850;2023-07-24T13:25:48;20.00;99.90
8172;DHT22;4127;47.908;10.850;2023-07-24T13:28:17;20.00;99.90
8172;DHT22;4127;47.908;10.850;2023-07-24T13:30:45;20.10;99.90
8172;DHT22;4127;47.908;10.850;2023-07-24T13:33:12;20.20;99.90
8172;DHT22;4127;47.908;10.850;2023-07-24T13:35:39;20.50;99.90
8172;DHT22;4127;47.908;10.850;2023-07-24T13:38:08;20.70;99.90
8172;DHT22;4127;47.908;10.850;2023-07-24T13:40:35;20.80;99.90
8172;DHT22;4127;47.908;10.850;2023-07-24T13:43:03;20.80;99.90
8172;DHT22;4127;47.908;10.850;2023-07-24T13:45:31;20.60;99.90
8172;DHT22;4127;47.908;10.850;2023-07-24T13:47:58;20.60;99.90
8172;DHT22;4127;47.908;10.850;2023-07-24T13:50:25;20.60;99.90
8172;DHT22;4127;47.908;10.850;2023-07-24T13:52:52;20.90;99.90
8172;DHT22;4127;47.908;10.850;2023-07-24T13:55:19;21.20;99.90
8172;DHT22;4127;47.908;10.850;2023-07-24T13:57:46;21.70;99.90
8172;DHT22;4127;47.908;10.850;2023-07-24T14:00:13;21.90;99.90
8172;DHT22;4127;47.908;10.850;2023-07-24T14:02:40;22.10;99.90
8172;DHT22;4127;47.908;10.850;2023-07-24T14:05:07;22.40;99.90
8172;DHT22;4127;47.908;10.850;2023-07-24T14:07:35;22.60;99.90
8172;DHT22;4127;47.908;10.850;2023-07-24T14:10:02;22.40;99.90
8172;DHT22;4127;47.908;10.850;2023-07-24T14:12:29;22.60;99.90
8172;DHT22;4127;47.908;10.850;2023-07-24T14:14:56;22.80;99.90
8172;DHT22;4127;47.908;10.850;2023-07-24T14:17:23;23.10;99.90
8172;DHT22;4127;47.908;10.850;2023-07-24T14:19:50;23.30;99.90
8172;DHT22;4127;47.908;10.850;2023-07-24T14:22:17;23.50;99.90
8172;DHT22;4127;47.908;10.850;2023-07-24T14:24:44;23.50;99.90
8172;DHT22;4127;47.908;10.850;2023-07-24T14:27:11;23.50;99.90
8172;DHT22;4127;47.908;10.850;2023-07-24T14:29:37;23.40;99.90
8172;DHT22;4127;47.908;10.850;2023-07-24T14:32:06;23.50;99.90
8172;DHT22;4127;47.908;10.850;2023-07-24T14:34:33;23.40;99.90
8172;DHT22;4127;47.908;10.850;2023-07-24T14:37:00;23.50;99.90
8172;DHT22;4127;47.908;10.850;2023-07-24T14:39:27;23.60;99.90
8172;DHT22;4127;47.908;10.850;2023-07-24T14:41:54;23.60;99.90
8172;DHT22;4127;47.908;10.850;2023-07-24T14:44:21;23.70;99.90
8172;DHT22;4127;47.908;10.850;2023-07-24T14:46:47;23.70;99.90
8172;DHT22;4127;47.908;10.850;2023-07-24T14:49:14;23.70;99.90
8172;DHT22;4127;47.908;10.850;2023-07-24T14:51:41;23.80;99.90
8172;DHT22;4127;47.908;10.850;2023-07-24T14:54:08;23.80;99.90
8172;DHT22;4127;47.908;10.850;2023-07-24T14:56:35;23.90;99.90
8172;DHT22;4127;47.908;10.850;2023-07-24T14:59:20;24.20;99.90
8172;DHT22;4127;47.908;10.850;2023-07-24T15:01:47;24.20;99.90
8172;DHT22;4127;47.908;10.850;2023-07-24T15:04:14;24.20;99.90
8172;DHT22;4127;47.908;10.850;2023-07-24T15:06:41;24.20;99.90
8172;DHT22;4127;47.908;10.850;2023-07-24T15:09:08;24.10;99.90
8172;DHT22;4127;47.908;10.850;2023-07-24T15:11:35;24.20;99.90
8172;DHT22;4127;47.908;10.850;2023-07-24T15:14:02;24.30;99.90
8172;DHT22;4127;47.908;10.850;2023-07-24T15:16:29;24.20;99.90
8172;DHT22;4127;47.908;10.850;2023-07-24T15:18:55;24.30;99.90
8172;DHT22;4127;47.908;10.850;2023-07-24T15:21:22;24.00;99.90
8172;DHT22;4127;47.908;10.850;2023-07-24T15:23:49;23.90;99.90
8172;DHT22;4127;47.908;10.850;2023-07-24T15:26:18;23.90;99.90
8172;DHT22;4127;47.908;10.850;2023-07-24T15:28:45;24.20;99.90
8172;DHT22;4127;47.908;10.850;2023-07-24T15:31:12;23.60;99.90
8172;DHT22;4127;47.908;10.850;2023-07-24T15:33:39;23.20;99.90
8172;DHT22;4127;47.908;10.850;2023-07-24T15:36:06;23.20;99.90
8172;DHT22;4127;47.908;10.850;2023-07-24T15:38:33;23.40;99.90
8172;DHT22;4127;47.908;10.850;2023-07-24T15:41:00;23.50;99.90
8172;DHT22;4127;47.908;10.850;2023-07-24T15:43:27;23.40;99.90
8172;DHT22;4127;47.908;10.850;2023-07-24T15:45:54;23.10;99.90
8172;DHT22;4127;47.908;10.850;2023-07-24T15:48:21;22.40;99.90
8172;DHT22;4127;47.908;10.850;2023-07-24T15:50:52;22.30;99.90
8172;DHT22;4127;47.908;10.850;2023-07-24T15:53:19;22.30;99.90
8172;DHT22;4127;47.908;10.850;2023-07-24T15:55:46;22.00;99.90
8172;DHT22;4127;47.908;10.850;2023-07-24T15:58:13;22.20;99.90
8172;DHT22;4127;47.908;10.850;2023-07-24T16:00:40;22.20;99.90
8172;DHT22;4127;47.908;10.850;2023-07-24T16:03:07;21.70;99.90
8172;DHT22;4127;47.908;10.850;2023-07-24T16:05:34;21.50;99.90
8172;DHT22;4127;47.908;10.850;2023-07-24T16:08:01;21.50;99.90
8172;DHT22;4127;47.908;10.850;2023-07-24T16:10:29;21.60;99.90
8172;DHT22;4127;47.908;10.850;2023-07-24T16:12:56;21.60;99.90
8172;DHT22;4127;47.908;10.850;2023-07-24T16:15:23;21.60;99.90
8172;DHT22;4127;47.908;10.850;2023-07-24T16:17:52;21.40;99.90
8172;DHT22;4127;47.908;10.850;2023-07-24T16:20:22;21.20;99.90
8172;DHT22;4127;47.908;10.850;2023-07-24T16:22:49;21.00;99.90
8172;DHT22;4127;47.908;10.850;2023-07-24T16:25:17;20.80;99.90
8172;DHT22;4127;47.908;10.850;2023-07-24T16:27:43;20.80;99.90
8172;DHT22;4127;47.908;10.850;2023-07-24T16:30:10;21.00;99.90
8172;DHT22;4127;47.908;10.850;2023-07-24T16:32:37;21.20;99.90
8172;DHT22;4127;47.908;10.850;2023-07-24T16:35:15;21.40;99.90
8172;DHT22;4127;47.908;10.850;2023-07-24T16:37:41;21.50;99.90
8172;DHT22;4127;47.908;10.850;2023-07-24T16:40:09;21.60;99.90
8172;DHT22;4127;47.908;10.850;2023-07-24T16:42:37;21.50;99.90
8172;DHT22;4127;47.908;10.850;2023-07-24T16:45:04;21.50;99.90
8172;DHT22;4127;47.908;10.850;2023-07-24T16:47:36;21.50;99.90
8172;DHT22;4127;47.908;10.850;2023-07-24T16:50:05;21.40;99.90
8172;DHT22;4127;47.908;10.850;2023-07-24T16:52:32;21.30;99.90
8172;DHT22;4127;47.908;10.850;2023-07-24T16:54:59;21.10;99.90
8172;DHT22;4127;47.908;10.850;2023-07-24T16:57:26;20.90;99.90
8172;DHT22;4127;47.908;10.850;2023-07-24T16:59:54;20.80;99.90
8172;DHT22;4127;47.908;10.850;2023-07-24T17:02:24;20.80;99.90
8172;DHT22;4127;47.908;10.850;2023-07-24T17:04:50;20.90;99.90
8172;DHT22;4127;47.908;10.850;2023-07-24T17:07:17;20.90;99.90
8172;DHT22;4127;47.908;10.850;2023-07-24T17:09:44;20.80;99.90
8172;DHT22;4127;47.908;10.850;2023-07-24T17:12:11;20.60;99.90
8172;DHT22;4127;47.908;10.850;2023-07-24T17:14:38;20.60;99.90
8172;DHT22;4127;47.908;10.850;2023-07-24T17:17:05;20.60;99.90
8172;DHT22;4127;47.908;10.850;2023-07-24T17:19:32;20.40;99.90
8172;DHT22;4127;47.908;10.850;2023-07-24T17:21:58;20.40;99.90
8172;DHT22;4127;47.908;10.850;2023-07-24T17:24:25;20.30;99.90
8172;DHT22;4127;47.908;10.850;2023-07-24T17:26:52;20.10;99.90
8172;DHT22;4127;47.908;10.850;2023-07-24T17:29:19;20.00;99.90
8172;DHT22;4127;47.908;10.850;2023-07-24T17:31:46;19.90;99.90
8172;DHT22;4127;47.908;10.850;2023-07-24T17:34:13;19.90;99.90
8172;DHT22;4127;47.908;10.850;2023-07-24T17:36:40;19.80;99.90
8172;DHT22;4127;47.908;10.850;2023-07-24T17:39:07;19.60;99.90
8172;DHT22;4127;47.908;10.850;2023-07-24T17:41:34;19.50;99.90
8172;DHT22;4127;47.908;10.850;2023-07-24T17:44:01;19.50;99.90
8172;DHT22;4127;47.908;10.850;2023-07-24T17:46:28;19.40;99.90
8172;DHT22;4127;47.908;10.850;2023-07-24T17:48:55;19.30;99.90
8172;DHT22;4127;47.908;10.850;2023-07-24T17:51:22;19.30;99.90
8172;DHT22;4127;47.908;10.850;2023-07-24T17:53:49;19.30;99.90
8172;DHT22;4127;47.908;10.850;2023-07-24T17:56:16;19.40;99.90
8172;DHT22;4127;47.908;10.850;2023-07-24T17:58:42;19.30;99.90
8172;DHT22;4127;47.908;10.850;2023-07-24T18:01:10;19.40;99.90
8172;DHT22;4127;47.908;10.850;2023-07-24T18:03:37;19.20;99.90
8172;DHT22;4127;47.908;10.850;2023-07-24T18:06:04;19.30;99.90
8172;DHT22;4127;47.908;10.850;2023-07-24T18:08:31;19.30;99.90
8172;DHT22;4127;47.908;10.850;2023-07-24T18:10:57;19.40;99.90
8172;DHT22;4127;47.908;10.850;2023-07-24T18:13:24;19.40;99.90
8172;DHT22;4127;47.908;10.850;2023-07-24T18:15:51;19.30;99.90
8172;DHT22;4127;47.908;10.850;2023-07-24T18:18:18;19.30;99.90
8172;DHT22;4127;47.908;10.850;2023-07-24T18:20:45;19.30;99.90
8172;DHT22;4127;47.908;10.850;2023-07-24T18:23:12;19.30;99.90
8172;DHT22;4127;47.908;10.850;2023-07-24T18:25:41;19.20;99.90
8172;DHT22;4127;47.908;10.850;2023-07-24T18:28:08;19.30;99.90
8172;DHT22;4127;47.908;10.850;2023-07-24T18:30:38;19.40;99.90
8172;DHT22;4127;47.908;10.850;2023-07-24T18:33:05;19.50;99.90
8172;DHT22;4127;47.908;10.850;2023-07-24T18:35:32;19.60;99.90
8172;DHT22;4127;47.908;10.850;2023-07-24T18:37:58;19.60;99.90
8172;DHT22;4127;47.908;10.850;2023-07-24T18:40:25;19.50;99.90
8172;DHT22;4127;47.908;10.850;2023-07-24T18:42:52;19.50;99.90
8172;DHT22;4127;47.908;10.850;2023-07-24T18:45:19;19.60;99.90
8172;DHT22;4127;47.908;10.850;2023-07-24T18:47:46;19.60;99.90
8172;DHT22;4127;47.908;10.850;2023-07-24T18:50:13;19.30;99.90
8172;DHT22;4127;47.908;10.850;2023-07-24T18:52:40;19.20;99.90
8172;DHT22;4127;47.908;10.850;2023-07-24T18:55:07;19.20;99.90
8172;DHT22;4127;47.908;10.850;2023-07-24T18:57:34;19.30;99.90
8172;DHT22;4127;47.908;10.850;2023-07-24T19:00:01;19.40;99.90
8172;DHT22;4127;47.908;10.850;2023-07-24T19:02:28;19.40;99.90
8172;DHT22;4127;47.908;10.850;2023-07-24T19:04:55;19.30;99.90
8172;DHT22;4127;47.908;10.850;2023-07-24T19:07:23;19.30;99.90
8172;DHT22;4127;47.908;10.850;2023-07-24T19:09:50;19.30;99.90
8172;DHT22;4127;47.908;10.850;2023-07-24T19:12:17;19.10;99.90
8172;DHT22;4127;47.908;10.850;2023-07-24T19:14:44;18.90;99.90
8172;DHT22;4127;47.908;10.850;2023-07-24T19:17:11;18.90;99.90
8172;DHT22;4127;47.908;10.850;2023-07-24T19:19:38;18.80;99.90
8172;DHT22;4127;47.908;10.850;2023-07-24T19:22:05;18.80;99.90
8172;DHT22;4127;47.908;10.850;2023-07-24T19:24:50;18.70;99.90
8172;DHT22;4127;47.908;10.850;2023-07-24T19:27:18;18.70;99.90
8172;DHT22;4127;47.908;10.850;2023-07-24T19:29:45;18.50;99.90
8172;DHT22;4127;47.908;10.850;2023-07-24T19:32:11;18.40;99.90
8172;DHT22;4127;47.908;10.850;2023-07-24T19:34:38;18.40;99.90
8172;DHT22;4127;47.908;10.850;2023-07-24T19:37:05;18.30;99.90
8172;DHT22;4127;47.908;10.850;2023-07-24T19:39:32;18.20;99.90
8172;DHT22;4127;47.908;10.850;2023-07-24T19:42:00;18.10;99.90
8172;DHT22;4127;47.908;10.850;2023-07-24T19:44:27;18.10;99.90
8172;DHT22;4127;47.908;10.850;2023-07-24T19:47:28;18.10;99.90
8172;DHT22;4127;47.908;10.850;2023-07-24T19:50:04;18.10;99.90
8172;DHT22;4127;47.908;10.850;2023-07-24T19:52:32;18.10;99.90
8172;DHT22;4127;47.908;10.850;2023-07-24T19:54:59;18.00;99.90
8172;DHT22;4127;47.908;10.850;2023-07-24T19:57:26;17.90;99.90
8172;DHT22;4127;47.908;10.850;2023-07-24T19:59:53;17.90;99.90
8172;DHT22;4127;47.908;10.850;2023-07-24T20:02:20;17.90;99.90
